createdAt,value
2022-12-06T07:04:07.463Z,6.57
2022-12-06T07:06:34.715Z,6.20
2022-12-06T07:09:01.987Z,5.40
2022-12-06T07:11:29.207Z,6.25
2022-12-06T07:13:56.442Z,6.55
2022-12-06T07:16:23.686Z,5.82
2022-12-06T07:18:51.536Z,5.82
2022-12-06T07:21:18.967Z,5.65
2022-12-06T07:23:46.642Z,5.68
2022-12-06T07:26:16.530Z,5.35
2022-12-06T07:28:45.546Z,5.88
2022-12-06T07:31:31.671Z,6.25
2022-12-06T07:34:01.059Z,5.95
2022-12-06T07:36:30.886Z,6.13
2022-12-06T07:38:59.220Z,6.13
2022-12-06T07:41:47.238Z,6.50
2022-12-06T07:44:35.232Z,6.43
2022-12-06T07:47:03.046Z,6.05
2022-12-06T07:49:30.397Z,6.60
2022-12-06T07:51:58.276Z,6.25
2022-12-06T07:54:26.042Z,6.72
2022-12-06T07:56:56.198Z,6.70
2022-12-06T07:59:23.974Z,6.40
2022-12-06T08:01:52.563Z,6.50
2022-12-06T08:04:20.040Z,6.72
2022-12-06T08:06:47.343Z,6.18
2022-12-06T08:09:14.813Z,6.13
2022-12-06T08:11:42.193Z,6.63
2022-12-06T08:14:11.231Z,6.28
2022-12-06T08:16:42.458Z,6.05
2022-12-06T08:19:10.910Z,5.60
2022-12-06T08:21:41.775Z,6.38
2022-12-06T08:24:09.813Z,5.78
2022-12-06T08:26:38.346Z,6.10
2022-12-06T08:29:05.637Z,6.78
2022-12-06T08:31:35.710Z,6.20
2022-12-06T08:34:04.277Z,7.05
2022-12-06T08:36:32.096Z,6.50
2022-12-06T08:39:00.347Z,7.03
2022-12-06T08:41:49.957Z,6.57
2022-12-06T08:44:17.967Z,7.68
2022-12-06T08:46:45.894Z,7.20
2022-12-06T08:49:14.537Z,7.40
2022-12-06T08:51:41.813Z,6.90
2022-12-06T08:54:14.505Z,7.25
2022-12-06T08:56:41.883Z,6.95
2022-12-06T08:59:09.447Z,7.10
2022-12-06T09:01:38.424Z,7.65
2022-12-06T09:04:09.786Z,6.75
2022-12-06T09:06:39.877Z,7.18
2022-12-06T09:09:10.127Z,7.30
2022-12-06T09:11:38.239Z,7.00
2022-12-06T09:14:07.309Z,6.68
2022-12-06T09:16:36.115Z,6.32
2022-12-06T09:19:03.505Z,5.95
2022-12-06T09:21:31.973Z,5.90
2022-12-06T09:23:59.572Z,6.28
2022-12-06T09:26:27.703Z,6.65
2022-12-06T09:28:56.001Z,7.10
2022-12-06T09:31:24.146Z,6.90
2022-12-06T09:33:52.011Z,7.45
2022-12-06T09:36:25.950Z,6.85
2022-12-06T09:39:15.497Z,7.03
2022-12-06T09:41:48.360Z,7.20
2022-12-06T09:44:27.493Z,6.78
2022-12-06T09:47:16.620Z,7.38
2022-12-06T09:50:35.603Z,6.63
2022-12-06T09:53:21.722Z,5.55
2022-12-06T09:56:11.610Z,5.88
2022-12-06T09:58:51.662Z,5.68
2022-12-06T10:01:24.807Z,5.70
2022-12-06T10:04:26.242Z,5.22
2022-12-06T10:07:18.157Z,4.93
2022-12-06T10:09:54.470Z,4.88
2022-12-06T10:12:53.727Z,4.60
2022-12-06T10:15:33.864Z,4.65
2022-12-06T10:18:14.386Z,4.80
2022-12-06T10:21:04.555Z,4.30
2022-12-06T10:23:46.820Z,4.50
2022-12-06T10:26:53.649Z,4.73
2022-12-06T10:29:47.559Z,4.93
2022-12-06T10:32:19.935Z,4.68
2022-12-06T10:34:53.183Z,4.75
2022-12-06T10:37:57.227Z,4.53
2022-12-06T10:40:39.364Z,4.82
2022-12-06T10:43:32.646Z,4.78
2022-12-06T10:46:35.686Z,4.63
2022-12-06T10:49:29.073Z,3.92
2022-12-06T10:51:59.249Z,4.60
2022-12-06T10:54:33.979Z,5.55
2022-12-06T10:57:04.672Z,5.10
2022-12-06T10:59:55.924Z,4.88
2022-12-06T11:02:59.387Z,4.70
2022-12-06T11:05:55.978Z,5.40
2022-12-06T11:08:36.690Z,5.20
2022-12-06T11:11:06.079Z,5.22
2022-12-06T11:13:39.814Z,5.40
2022-12-06T11:16:23.591Z,5.20
2022-12-06T11:18:52.782Z,4.90
2022-12-06T11:21:46.451Z,5.10
2022-12-06T11:24:26.750Z,4.30
2022-12-06T11:27:32.019Z,4.68
2022-12-06T11:29:59.574Z,5.00
2022-12-06T11:32:26.987Z,4.90
2022-12-06T11:34:57.100Z,4.78
2022-12-06T11:37:30.381Z,4.15
2022-12-06T11:40:06.642Z,3.88
2022-12-06T11:42:33.962Z,4.40
2022-12-06T11:45:10.913Z,4.28
2022-12-06T11:47:38.350Z,4.05
2022-12-06T11:50:17.169Z,4.13
2022-12-06T11:52:53.697Z,3.78
2022-12-06T11:55:27.667Z,3.88
2022-12-06T11:58:07.784Z,3.30
2022-12-06T12:00:35.319Z,3.10
2022-12-06T12:03:02.714Z,3.40
2022-12-06T12:05:34.329Z,3.45
2022-12-06T12:08:16.591Z,3.40
2022-12-06T12:10:45.468Z,3.77
2022-12-06T12:13:31.157Z,3.60
2022-12-06T12:16:25.502Z,4.57
2022-12-06T12:19:46.271Z,4.63
2022-12-06T12:22:38.766Z,4.22
2022-12-06T12:25:28.308Z,4.30
2022-12-06T12:27:57.333Z,4.18
2022-12-06T12:30:42.307Z,3.42
2022-12-06T12:33:18.623Z,4.30
2022-12-06T12:35:48.955Z,3.47
2022-12-06T12:38:29.591Z,4.70
2022-12-06T12:41:02.405Z,3.80
2022-12-06T12:43:34.342Z,3.78
2022-12-06T12:46:12.158Z,3.97
2022-12-06T12:48:41.436Z,3.90
2022-12-06T12:51:27.727Z,4.18
2022-12-06T12:54:01.976Z,4.43
2022-12-06T12:56:36.313Z,4.13
2022-12-06T12:59:08.796Z,3.97
2022-12-06T13:02:00.207Z,3.80
2022-12-06T13:04:44.166Z,3.85
2022-12-06T13:07:12.633Z,3.80
2022-12-06T13:09:48.832Z,4.05
2022-12-06T13:12:37.252Z,3.35
2022-12-06T13:15:06.407Z,3.25
2022-12-06T13:17:36.359Z,3.10
2022-12-06T13:20:14.781Z,3.53
2022-12-06T13:22:47.464Z,2.80
2022-12-06T13:25:15.015Z,2.92
2022-12-06T13:27:45.520Z,3.15
2022-12-06T13:30:16.150Z,2.90
2022-12-06T13:33:05.034Z,2.25
2022-12-06T13:35:41.159Z,2.80
2022-12-06T13:41:36.116Z,2.55
2022-12-06T13:44:03.322Z,2.42
2022-12-06T13:46:31.939Z,1.95
2022-12-06T13:49:04.775Z,2.40
2022-12-06T13:51:34.654Z,2.28
2022-12-06T13:54:07.855Z,2.20
2022-12-06T13:56:35.519Z,1.95
2022-12-06T13:59:13.008Z,2.67
2022-12-06T14:01:45.323Z,2.30
2022-12-06T14:06:57.148Z,2.00
2022-12-06T14:09:26.176Z,1.80
2022-12-06T14:11:53.722Z,2.15
2022-12-06T14:14:24.044Z,2.33
2022-12-06T14:17:04.383Z,1.83
2022-12-06T14:19:49.468Z,1.75
2022-12-06T14:22:25.441Z,1.50
2022-12-06T14:25:00.453Z,1.10
2022-12-06T14:27:33.107Z,1.50
2022-12-06T14:30:04.239Z,1.30
2022-12-06T14:32:37.441Z,1.70
2022-12-06T14:35:16.220Z,1.75
2022-12-06T14:37:58.385Z,1.60
2022-12-06T14:40:59.943Z,2.15
2022-12-06T14:43:31.213Z,2.78
2022-12-06T14:46:00.299Z,2.65
2022-12-06T14:48:47.811Z,3.13
2022-12-06T14:51:23.856Z,3.30
2022-12-06T14:53:51.420Z,2.20
2022-12-06T14:56:27.133Z,2.47
2022-12-06T14:58:54.768Z,2.40
2022-12-06T15:01:27.602Z,2.75
2022-12-06T15:04:03.592Z,2.20
2022-12-06T15:06:35.520Z,2.85
2022-12-06T15:09:02.679Z,3.17
2022-12-06T15:11:50.311Z,2.83
2022-12-06T15:14:22.970Z,3.00
2022-12-06T15:17:10.188Z,3.35
2022-12-06T15:19:44.016Z,3.30
2022-12-06T15:22:24.944Z,3.92
2022-12-06T15:24:57.994Z,3.92
2022-12-06T15:27:28.533Z,3.60
2022-12-06T15:29:55.842Z,3.60
2022-12-06T15:32:25.018Z,3.20
2022-12-06T15:34:52.278Z,3.65
2022-12-06T15:40:08.907Z,3.92
2022-12-06T15:42:36.488Z,3.97
2022-12-06T15:45:04.056Z,4.20
2022-12-06T15:47:31.720Z,4.70
2022-12-06T15:49:58.995Z,4.20
2022-12-06T15:52:27.582Z,4.97
2022-12-06T15:54:54.945Z,4.35
2022-12-06T15:57:22.221Z,4.47
2022-12-06T15:59:49.471Z,4.30
2022-12-06T16:02:18.854Z,4.90
2022-12-06T16:04:50.430Z,4.22
2022-12-06T16:07:19.297Z,4.38
2022-12-06T16:09:48.317Z,3.88
2022-12-06T16:12:15.905Z,4.75
2022-12-06T16:14:43.888Z,3.90
2022-12-06T16:17:11.333Z,4.28
2022-12-06T16:19:57.098Z,4.28
2022-12-06T16:22:44.325Z,3.80
2022-12-06T16:25:11.584Z,4.10
2022-12-06T16:27:39.724Z,4.00
2022-12-06T16:30:08.922Z,4.40
2022-12-06T16:32:36.223Z,4.55
2022-12-06T16:35:03.925Z,5.25
2022-12-06T16:37:31.442Z,5.50
2022-12-06T16:39:58.711Z,5.70
2022-12-06T16:42:26.080Z,5.60
2022-12-06T16:44:53.313Z,5.07
2022-12-06T16:49:49.809Z,6.13
2022-12-06T16:52:17.941Z,6.10
2022-12-06T16:54:45.521Z,5.20
2022-12-06T16:57:13.756Z,5.00
2022-12-06T16:59:42.781Z,5.28
2022-12-06T17:02:27.057Z,5.47
2022-12-06T17:04:55.204Z,4.90
2022-12-06T17:07:22.747Z,4.97
2022-12-06T17:09:50.002Z,4.35
2022-12-06T17:12:17.427Z,4.55
2022-12-06T17:14:45.026Z,4.22
2022-12-06T17:17:17.139Z,4.53
2022-12-06T17:19:44.495Z,4.30
2022-12-06T17:22:12.961Z,4.50
2022-12-06T17:24:40.335Z,4.22
2022-12-06T17:27:09.548Z,4.40
2022-12-06T17:29:37.240Z,4.43
2022-12-06T17:32:04.662Z,4.60
2022-12-06T17:34:33.142Z,4.80
2022-12-06T17:37:00.547Z,4.88
2022-12-06T17:39:27.881Z,5.05
2022-12-06T17:42:13.542Z,5.40
2022-12-06T17:44:40.922Z,5.90
2022-12-06T17:47:08.220Z,6.35
2022-12-06T17:49:36.250Z,6.05
2022-12-06T17:52:03.673Z,5.25
2022-12-06T17:54:31.254Z,5.60
2022-12-06T17:56:58.566Z,5.40
2022-12-06T17:59:28.684Z,4.90
2022-12-06T18:02:17.032Z,5.40
2022-12-06T18:04:45.909Z,5.60
2022-12-06T18:07:14.152Z,6.75
2022-12-06T18:09:41.713Z,6.25
2022-12-06T18:12:13.662Z,5.75
2022-12-06T18:14:40.957Z,5.38
2022-12-06T18:17:08.736Z,6.88
2022-12-06T18:19:36.141Z,5.68
2022-12-06T18:22:03.587Z,6.03
2022-12-06T18:24:35.444Z,5.93
2022-12-06T18:27:04.507Z,6.82
2022-12-06T18:29:33.398Z,8.40
2022-12-06T18:32:00.803Z,7.20
2022-12-06T18:34:28.221Z,5.85
2022-12-06T18:36:55.467Z,6.05
2022-12-06T18:39:25.919Z,9.35
2022-12-06T18:41:54.660Z,7.78
2022-12-06T18:44:22.611Z,6.43
2022-12-06T18:46:49.871Z,5.00
2022-12-06T18:49:17.406Z,5.07
2022-12-06T18:51:44.755Z,5.60
2022-12-06T18:54:14.040Z,5.55
2022-12-06T18:56:42.178Z,5.55
2022-12-06T18:59:11.834Z,5.38
2022-12-06T19:01:40.182Z,5.47
2022-12-06T19:04:09.314Z,5.50
2022-12-06T19:06:38.229Z,6.32
2022-12-06T19:09:09.351Z,5.18
2022-12-06T19:11:38.276Z,5.03
2022-12-06T19:14:06.212Z,5.10
2022-12-06T19:16:46.830Z,5.68
2022-12-06T19:19:17.557Z,5.95
2022-12-06T19:21:46.699Z,5.60
2022-12-06T19:24:16.068Z,5.70
2022-12-06T19:26:43.682Z,5.78
2022-12-06T19:29:11.180Z,5.95
2022-12-06T19:31:38.653Z,5.63
2022-12-06T19:34:06.075Z,5.90
2022-12-06T19:36:33.591Z,6.43
2022-12-06T19:39:06.442Z,6.40
2022-12-06T19:41:57.231Z,6.40
2022-12-06T19:44:25.178Z,6.45
2022-12-06T19:46:52.507Z,6.00
2022-12-06T19:49:21.608Z,6.25
2022-12-06T19:51:49.889Z,6.28
2022-12-06T19:54:22.650Z,6.25
2022-12-06T19:56:53.074Z,7.70
2022-12-06T19:59:21.643Z,7.30
2022-12-06T20:01:50.022Z,6.10
2022-12-06T20:04:19.873Z,6.72
2022-12-06T20:06:47.201Z,6.90
2022-12-06T20:09:15.279Z,6.40
2022-12-06T20:12:01.919Z,6.18
2022-12-06T20:14:43.828Z,6.30
2022-12-06T20:17:19.943Z,6.25
2022-12-06T20:19:49.024Z,6.13
2022-12-06T20:22:18.291Z,5.53
2022-12-06T20:24:45.685Z,5.57
2022-12-06T20:27:12.993Z,5.97
2022-12-06T20:29:40.393Z,5.65
2022-12-06T20:32:07.731Z,5.63
2022-12-06T20:34:35.353Z,5.78
2022-12-06T20:37:04.503Z,5.40
2022-12-06T20:39:35.682Z,6.63
2022-12-06T20:42:04.542Z,6.85
2022-12-06T20:44:31.858Z,6.75
2022-12-06T20:47:00.194Z,6.70
2022-12-06T20:49:27.741Z,6.93
2022-12-06T20:51:55.133Z,6.38
2022-12-06T20:54:22.477Z,6.22
2022-12-06T20:56:52.162Z,6.32
2022-12-06T20:59:20.085Z,6.05
2022-12-06T21:01:47.537Z,6.93
2022-12-06T21:04:15.424Z,6.97
2022-12-06T21:06:42.899Z,7.05
2022-12-06T21:09:10.368Z,7.40
2022-12-06T21:11:37.948Z,7.70
2022-12-06T21:14:06.634Z,6.55
2022-12-06T21:16:35.328Z,7.15
2022-12-06T21:19:08.123Z,10.45
2022-12-06T21:21:40.372Z,9.43
2022-12-06T21:24:13.664Z,9.90
2022-12-06T21:26:41.058Z,8.63
2022-12-06T21:29:09.643Z,8.73
2022-12-06T21:31:38.348Z,9.63
2022-12-06T21:34:05.954Z,10.18
2022-12-06T21:36:33.868Z,9.85
2022-12-06T21:39:01.435Z,10.57
2022-12-06T21:41:33.288Z,9.15
2022-12-06T21:44:02.576Z,9.52
2022-12-06T21:46:29.919Z,8.80
2022-12-06T21:48:58.752Z,9.18
2022-12-06T21:51:28.266Z,9.23
2022-12-06T21:54:03.741Z,8.80
2022-12-06T21:56:32.770Z,10.27
2022-12-06T21:59:01.175Z,10.18
2022-12-06T22:01:29.805Z,10.52
2022-12-06T22:03:59.193Z,11.32
2022-12-06T22:06:26.774Z,10.00
2022-12-06T22:08:59.077Z,10.05
2022-12-06T22:11:26.698Z,9.73
2022-12-06T22:13:53.960Z,9.82
2022-12-06T22:16:21.337Z,10.77
2022-12-06T22:18:49.131Z,10.95
2022-12-06T22:21:18.809Z,9.45
2022-12-06T22:23:46.726Z,9.88
2022-12-06T22:26:17.332Z,9.43
2022-12-06T22:28:44.704Z,8.70
2022-12-06T22:31:19.635Z,9.13
2022-12-06T22:33:47.735Z,9.10
2022-12-06T22:36:15.649Z,9.27
2022-12-06T22:38:43.287Z,9.27
2022-12-06T22:41:11.097Z,9.43
2022-12-06T22:43:38.692Z,9.48
2022-12-06T22:46:16.474Z,8.85
2022-12-06T22:48:44.195Z,9.02
2022-12-06T22:51:20.005Z,8.35
2022-12-06T22:53:52.202Z,8.93
2022-12-06T22:56:25.883Z,8.60
2022-12-06T22:58:57.346Z,8.25
2022-12-06T23:01:26.681Z,8.02
2022-12-06T23:03:54.592Z,8.10
2022-12-06T23:06:24.148Z,6.80
2022-12-06T23:08:51.699Z,7.13
2022-12-06T23:11:25.669Z,6.10
2022-12-06T23:13:53.740Z,6.15
2022-12-06T23:16:24.540Z,5.57
2022-12-06T23:18:52.444Z,6.10
2022-12-06T23:21:25.023Z,5.05
2022-12-06T23:23:57.359Z,4.53
2022-12-06T23:26:27.416Z,4.90
2022-12-06T23:28:55.195Z,4.93
2022-12-06T23:31:28.195Z,5.15
2022-12-06T23:34:07.116Z,5.05
2022-12-06T23:36:35.476Z,4.32
2022-12-06T23:39:03.972Z,4.75
2022-12-06T23:41:32.565Z,4.90
2022-12-06T23:44:00.409Z,5.50
2022-12-06T23:46:52.140Z,5.22
2022-12-06T23:49:20.926Z,4.32
2022-12-06T23:51:49.008Z,4.40
2022-12-06T23:54:17.291Z,4.80
2022-12-06T23:56:45.188Z,4.40
2022-12-06T23:59:17.315Z,5.00
